createdAt,value
2023-02-07T00:02:58.469Z,2.72
2023-02-07T00:06:09.258Z,2.58
2023-02-07T00:09:15.259Z,2.58
2023-02-07T00:12:23.797Z,2.90
2023-02-07T00:15:29.484Z,3.10
2023-02-07T00:18:38.621Z,2.03
2023-02-07T00:21:48.080Z,2.20
2023-02-07T00:24:57.224Z,1.48
2023-02-07T00:28:02.805Z,1.40
2023-02-07T00:31:08.583Z,0.70
2023-02-07T00:34:17.828Z,0.55
2023-02-07T00:37:22.700Z,0.57
2023-02-07T00:40:30.647Z,0.75
2023-02-07T00:43:35.842Z,0.85
2023-02-07T00:46:43.724Z,0.63
2023-02-07T00:49:51.492Z,0.77
2023-02-07T00:52:58.065Z,0.60
2023-02-07T00:56:04.744Z,0.50
2023-02-07T00:59:10.049Z,0.60
2023-02-07T01:02:14.996Z,0.70
2023-02-07T01:05:22.801Z,0.73
2023-02-07T01:08:27.679Z,0.57
2023-02-07T01:11:34.624Z,0.70
2023-02-07T01:14:39.442Z,1.15
2023-02-07T01:17:44.781Z,0.65
2023-02-07T01:20:53.697Z,1.30
2023-02-07T01:24:00.319Z,1.50
2023-02-07T01:27:05.292Z,1.77
2023-02-07T01:30:11.349Z,2.00
2023-02-07T01:33:18.400Z,1.83
2023-02-07T01:36:26.735Z,2.00
2023-02-07T01:39:31.869Z,2.17
2023-02-07T01:42:47.488Z,2.22
2023-02-07T01:45:53.587Z,2.28
2023-02-07T01:49:00.989Z,3.45
2023-02-07T01:52:12.048Z,2.25
2023-02-07T01:55:21.508Z,2.40
2023-02-07T01:58:27.970Z,2.70
2023-02-07T02:01:33.501Z,2.15
2023-02-07T02:04:39.639Z,1.98
2023-02-07T02:07:48.816Z,2.35
2023-02-07T02:11:05.240Z,2.38
2023-02-07T02:14:19.871Z,2.67
2023-02-07T02:17:30.924Z,2.55
2023-02-07T02:20:52.355Z,2.10
2023-02-07T02:24:10.832Z,2.25
2023-02-07T02:27:19.434Z,2.60
2023-02-07T02:30:43.676Z,2.13
2023-02-07T02:33:56.319Z,2.83
2023-02-07T02:37:04.883Z,2.90
2023-02-07T02:40:14.017Z,3.38
2023-02-07T02:43:23.640Z,3.95
2023-02-07T02:46:31.785Z,3.75
2023-02-07T02:49:41.656Z,4.10
2023-02-07T02:52:51.062Z,4.15
2023-02-07T02:56:05.541Z,5.35
2023-02-07T02:59:18.235Z,4.93
2023-02-07T03:02:33.394Z,6.40
2023-02-07T03:05:49.462Z,5.93
2023-02-07T03:08:57.348Z,5.38
2023-02-07T03:12:06.206Z,6.38
2023-02-07T03:15:17.101Z,5.88
2023-02-07T03:18:25.051Z,5.30
2023-02-07T03:21:35.187Z,6.38
2023-02-07T03:24:42.468Z,6.50
2023-02-07T03:27:48.332Z,7.13
2023-02-07T03:30:58.633Z,6.43
2023-02-07T03:34:07.718Z,6.70
2023-02-07T03:37:20.789Z,7.50
2023-02-07T03:40:26.392Z,7.10
2023-02-07T03:43:33.548Z,6.72
2023-02-07T03:46:39.790Z,6.22
2023-02-07T03:49:46.453Z,6.88
2023-02-07T03:52:58.031Z,7.00
2023-02-07T03:56:05.556Z,7.32
2023-02-07T03:59:11.047Z,6.95
2023-02-07T04:02:18.703Z,7.15
2023-02-07T04:05:23.780Z,7.68
2023-02-07T04:08:31.845Z,7.47
2023-02-07T04:11:37.076Z,7.03
2023-02-07T04:14:42.668Z,7.60
2023-02-07T04:17:47.536Z,7.70
2023-02-07T04:20:55.122Z,7.97
2023-02-07T04:24:02.719Z,8.50
2023-02-07T04:27:09.751Z,7.80
2023-02-07T04:30:17.922Z,7.65
2023-02-07T04:33:23.883Z,7.57
2023-02-07T04:36:31.004Z,7.38
2023-02-07T04:39:40.625Z,8.20
2023-02-07T04:42:45.679Z,8.23
2023-02-07T04:45:52.255Z,7.65
2023-02-07T04:48:57.074Z,7.55
2023-02-07T04:52:02.613Z,7.45
2023-02-07T04:55:10.464Z,7.13
2023-02-07T04:58:15.802Z,8.00
2023-02-07T05:01:20.743Z,6.72
2023-02-07T05:04:28.374Z,6.70
2023-02-07T05:07:34.776Z,7.28
2023-02-07T05:10:44.267Z,6.70
2023-02-07T05:13:49.068Z,5.60
2023-02-07T05:16:55.582Z,3.15
2023-02-07T05:20:00.383Z,3.60
2023-02-07T05:23:09.243Z,3.85
2023-02-07T05:26:19.267Z,3.42
2023-02-07T05:29:24.575Z,3.80
2023-02-07T05:32:41.789Z,4.80
2023-02-07T05:35:47.724Z,5.75
2023-02-07T05:38:52.550Z,5.10
2023-02-07T05:42:02.048Z,3.75
2023-02-07T05:45:07.356Z,3.00
2023-02-07T05:48:12.742Z,3.40
2023-02-07T05:51:17.644Z,3.42
2023-02-07T05:54:22.860Z,2.33
2023-02-07T05:57:30.510Z,2.25
2023-02-07T06:00:36.225Z,1.58
2023-02-07T06:03:41.450Z,1.55
2023-02-07T06:06:46.939Z,1.50
2023-02-07T06:09:53.277Z,1.60
2023-02-07T06:13:04.137Z,2.30
2023-02-07T06:16:10.863Z,2.20
2023-02-07T06:19:16.700Z,2.35
2023-02-07T06:22:23.781Z,2.45
2023-02-07T06:25:29.656Z,1.90
2023-02-07T06:28:38.452Z,2.42
2023-02-07T06:31:43.824Z,1.73
2023-02-07T06:34:49.012Z,2.22
2023-02-07T06:37:55.265Z,2.10
2023-02-07T06:41:01.662Z,2.10
2023-02-07T06:44:10.230Z,2.45
2023-02-07T06:47:16.524Z,1.90
2023-02-07T06:50:21.857Z,2.30
2023-02-07T06:53:28.001Z,2.33
2023-02-07T06:56:33.717Z,2.40
2023-02-07T06:59:44.172Z,2.20
2023-02-07T07:02:49.927Z,2.83
2023-02-07T07:05:54.870Z,2.13
2023-02-07T07:09:00.490Z,2.72
2023-02-07T07:12:08.277Z,2.55
2023-02-07T07:15:19.393Z,2.70
2023-02-07T07:18:25.553Z,1.85
2023-02-07T07:21:30.923Z,2.35
2023-02-07T07:24:39.376Z,1.63
2023-02-07T07:27:44.925Z,3.28
2023-02-07T07:30:54.747Z,2.88
2023-02-07T07:34:02.834Z,2.75
2023-02-07T07:37:08.104Z,2.72
2023-02-07T07:40:14.361Z,2.75
2023-02-07T07:43:19.171Z,2.65
2023-02-07T07:46:27.148Z,3.00
2023-02-07T07:49:34.957Z,2.60
2023-02-07T07:52:43.086Z,2.90
2023-02-07T07:55:51.588Z,2.72
2023-02-07T07:58:56.842Z,2.20
2023-02-07T08:02:04.652Z,2.65
2023-02-07T08:05:13.205Z,2.30
2023-02-07T08:08:19.033Z,2.70
2023-02-07T08:11:25.469Z,2.70
2023-02-07T08:14:30.640Z,2.72
2023-02-07T08:17:43.293Z,2.88
2023-02-07T08:20:54.896Z,2.50
2023-02-07T08:24:01.756Z,2.60
2023-02-07T08:27:08.526Z,2.65
2023-02-07T08:30:15.708Z,2.88
2023-02-07T08:33:26.343Z,3.30
2023-02-07T08:36:32.402Z,5.10
2023-02-07T08:39:37.333Z,5.85
2023-02-07T08:42:42.664Z,6.55
2023-02-07T08:45:50.061Z,7.30
2023-02-07T08:48:58.008Z,7.43
2023-02-07T08:52:04.609Z,4.57
2023-02-07T08:55:11.982Z,6.35
2023-02-07T08:58:17.104Z,6.68
2023-02-07T09:01:24.620Z,6.43
2023-02-07T09:04:36.529Z,7.03
2023-02-07T09:07:44.305Z,6.28
2023-02-07T09:10:51.174Z,7.07
2023-02-07T09:13:56.653Z,6.25
2023-02-07T09:17:01.528Z,6.95
2023-02-07T09:20:11.770Z,7.65
2023-02-07T09:23:21.350Z,5.20
2023-02-07T09:26:27.442Z,6.85
2023-02-07T09:29:32.388Z,6.00
2023-02-07T09:32:37.615Z,6.93
2023-02-07T09:35:46.460Z,6.82
2023-02-07T09:38:56.618Z,6.80
2023-02-07T09:42:11.183Z,6.35
2023-02-07T09:45:21.588Z,6.25
2023-02-07T09:48:28.208Z,6.90
2023-02-07T09:51:37.467Z,5.70
2023-02-07T09:54:46.105Z,6.45
2023-02-07T09:57:54.837Z,5.80
2023-02-07T10:01:04.870Z,6.38
2023-02-07T10:04:16.922Z,7.18
2023-02-07T10:07:28.854Z,5.60
2023-02-07T10:10:39.500Z,8.00
2023-02-07T10:13:48.919Z,6.28
2023-02-07T10:17:00.373Z,6.28
2023-02-07T10:20:10.794Z,6.05
2023-02-07T10:23:28.774Z,7.25
2023-02-07T10:26:38.121Z,6.40
2023-02-07T10:29:51.907Z,7.63
2023-02-07T10:33:01.777Z,5.57
2023-02-07T10:36:09.238Z,7.32
2023-02-07T10:39:17.950Z,7.97
2023-02-07T10:42:24.143Z,6.90
2023-02-07T10:45:29.046Z,7.38
2023-02-07T10:48:34.472Z,5.45
2023-02-07T10:51:41.494Z,6.75
2023-02-07T10:54:55.225Z,5.50
2023-02-07T10:58:17.745Z,5.90
2023-02-07T11:01:30.094Z,6.07
2023-02-07T11:04:40.443Z,6.65
2023-02-07T11:07:58.919Z,5.95
2023-02-07T11:11:27.150Z,6.25
2023-02-07T11:14:33.795Z,5.90
2023-02-07T11:17:39.892Z,4.50
2023-02-07T11:20:53.464Z,5.05
2023-02-07T11:24:00.911Z,4.07
2023-02-07T11:27:12.391Z,5.82
2023-02-07T11:30:19.481Z,4.82
2023-02-07T11:33:28.440Z,4.60
2023-02-07T11:36:39.609Z,5.38
2023-02-07T11:39:49.119Z,5.25
2023-02-07T11:43:00.475Z,6.43
2023-02-07T11:46:10.174Z,6.10
2023-02-07T11:49:23.259Z,6.82
2023-02-07T11:52:29.615Z,5.45
2023-02-07T11:55:37.167Z,6.60
2023-02-07T11:58:48.657Z,7.93
2023-02-07T12:01:56.611Z,5.70
2023-02-07T12:05:12.414Z,6.13
2023-02-07T12:08:20.899Z,6.50
2023-02-07T12:11:29.031Z,5.57
2023-02-07T12:14:41.790Z,6.28
2023-02-07T12:17:54.757Z,6.10
2023-02-07T12:21:04.102Z,5.60
2023-02-07T12:24:15.458Z,6.50
2023-02-07T12:27:21.576Z,6.20
2023-02-07T12:30:33.890Z,6.72
2023-02-07T12:33:44.600Z,6.32
2023-02-07T12:36:54.484Z,6.95
2023-02-07T12:40:05.543Z,6.43
2023-02-07T12:43:16.026Z,7.38
2023-02-07T12:46:28.062Z,7.10
2023-02-07T12:49:51.289Z,7.28
2023-02-07T12:53:00.786Z,7.50
2023-02-07T12:56:12.105Z,7.57
2023-02-07T12:59:21.059Z,7.32
2023-02-07T13:02:34.311Z,8.77
2023-02-07T13:08:54.211Z,8.05
2023-02-07T13:12:04.558Z,8.23
2023-02-07T13:15:18.328Z,7.00
2023-02-07T13:18:30.286Z,6.32
2023-02-07T13:21:40.265Z,7.90
2023-02-07T13:24:46.056Z,7.80
2023-02-07T13:27:54.846Z,7.55
2023-02-07T13:31:00.883Z,8.02
2023-02-07T13:34:12.040Z,7.25
2023-02-07T13:37:18.810Z,7.38
2023-02-07T13:40:28.733Z,8.80
2023-02-07T13:43:43.087Z,8.48
2023-02-07T13:47:06.994Z,8.15
2023-02-07T13:50:19.893Z,6.97
2023-02-07T13:53:31.982Z,7.75
2023-02-07T13:56:50.212Z,7.47
2023-02-07T14:00:10.495Z,6.90
2023-02-07T14:03:24.338Z,7.57
2023-02-07T14:06:35.464Z,7.70
2023-02-07T14:09:43.143Z,7.13
2023-02-07T14:12:53.090Z,9.25
2023-02-07T14:16:01.397Z,8.30
2023-02-07T14:19:09.025Z,7.78
2023-02-07T14:22:19.720Z,9.95
2023-02-07T14:25:27.171Z,10.40
2023-02-07T14:28:36.406Z,9.75
2023-02-07T14:31:50.428Z,10.70
2023-02-07T14:35:03.166Z,9.73
2023-02-07T14:38:28.936Z,11.40
2023-02-07T14:41:39.087Z,12.73
2023-02-07T14:44:48.647Z,9.60
2023-02-07T14:47:56.444Z,11.15
2023-02-07T14:51:02.420Z,10.88
2023-02-07T14:54:11.038Z,11.40
2023-02-07T14:57:26.047Z,11.57
2023-02-07T15:00:33.253Z,9.95
2023-02-07T15:03:38.640Z,12.38
2023-02-07T15:06:44.558Z,11.45
2023-02-07T15:09:52.585Z,11.32
2023-02-07T15:12:58.846Z,12.13
2023-02-07T15:16:06.819Z,10.80
2023-02-07T15:19:16.480Z,11.05
2023-02-07T15:22:27.824Z,11.05
2023-02-07T15:25:35.521Z,11.20
2023-02-07T15:28:40.849Z,12.05
2023-02-07T15:31:48.092Z,11.93
2023-02-07T15:34:55.989Z,12.10
2023-02-07T15:38:16.765Z,11.30
2023-02-07T15:41:26.350Z,12.45
2023-02-07T15:44:33.392Z,10.55
2023-02-07T15:47:42.772Z,10.52
2023-02-07T15:50:55.905Z,9.90
2023-02-07T15:54:02.422Z,12.15
2023-02-07T15:57:14.688Z,9.02
2023-02-07T16:00:24.793Z,11.85
2023-02-07T16:03:30.907Z,11.95
2023-02-07T16:06:36.776Z,12.27
2023-02-07T16:09:50.986Z,13.18
2023-02-07T16:13:05.529Z,12.63
2023-02-07T16:16:12.749Z,11.95
2023-02-07T16:19:21.754Z,14.32
2023-02-07T16:22:29.141Z,14.07
2023-02-07T16:25:36.074Z,13.65
2023-02-07T16:28:47.181Z,12.27
2023-02-07T16:31:53.866Z,12.40
2023-02-07T16:35:00.821Z,13.40
2023-02-07T16:38:06.624Z,12.57
2023-02-07T16:41:28.405Z,11.93
2023-02-07T16:44:44.437Z,13.67
2023-02-07T16:47:49.608Z,11.77
2023-02-07T16:50:57.861Z,12.80
2023-02-07T16:54:04.328Z,12.30
2023-02-07T16:57:10.045Z,11.75
2023-02-07T17:00:21.281Z,12.38
2023-02-07T17:03:30.989Z,12.63
2023-02-07T17:06:36.434Z,12.95
2023-02-07T17:09:43.084Z,13.52
2023-02-07T17:12:50.553Z,12.20
2023-02-07T17:15:59.470Z,11.80
2023-02-07T17:19:12.813Z,12.52
2023-02-07T17:22:21.533Z,12.68
2023-02-07T17:25:30.825Z,12.32
2023-02-07T17:28:37.317Z,11.48
2023-02-07T17:31:42.233Z,11.93
2023-02-07T17:34:50.293Z,12.73
2023-02-07T17:37:55.942Z,11.90
2023-02-07T17:41:02.488Z,11.82
2023-02-07T17:44:07.380Z,11.65
2023-02-07T17:47:12.765Z,12.27
2023-02-07T17:50:22.337Z,11.77
2023-02-07T17:53:27.622Z,11.77
2023-02-07T17:56:33.525Z,11.98
2023-02-07T17:59:38.673Z,11.70
2023-02-07T18:02:45.323Z,13.38
2023-02-07T18:05:57.691Z,12.52
2023-02-07T18:09:04.336Z,12.43
2023-02-07T18:12:09.703Z,13.13
2023-02-07T18:15:14.848Z,12.35
2023-02-07T18:18:20.059Z,12.13
2023-02-07T18:21:29.700Z,12.10
2023-02-07T18:24:34.992Z,11.57
2023-02-07T18:27:39.777Z,11.50
2023-02-07T18:30:45.235Z,12.40
2023-02-07T18:33:50.425Z,12.18
2023-02-07T18:36:58.547Z,12.82
2023-02-07T18:40:03.939Z,12.57
2023-02-07T18:43:10.894Z,12.32
2023-02-07T18:46:17.791Z,13.02
2023-02-07T18:49:23.327Z,10.60
2023-02-07T18:52:30.824Z,12.18
2023-02-07T18:55:36.674Z,13.25
2023-02-07T18:58:42.864Z,12.52
2023-02-07T19:01:48.505Z,12.65
2023-02-07T19:04:59.866Z,12.20
2023-02-07T19:08:07.953Z,11.98
2023-02-07T19:11:14.047Z,12.60
2023-02-07T19:14:23.153Z,11.50
2023-02-07T19:17:28.986Z,11.95
2023-02-07T19:20:34.595Z,10.40
2023-02-07T19:23:44.565Z,11.52
2023-02-07T19:26:50.886Z,10.85
2023-02-07T19:29:56.200Z,11.07
2023-02-07T19:33:01.827Z,10.52
2023-02-07T19:36:07.275Z,11.65
2023-02-07T19:39:15.343Z,11.43
2023-02-07T19:42:20.533Z,11.25
2023-02-07T19:45:26.686Z,11.82
2023-02-07T19:48:31.588Z,11.38
2023-02-07T19:51:36.732Z,13.18
2023-02-07T19:54:44.633Z,14.13
2023-02-07T19:57:49.838Z,16.15
2023-02-07T20:00:54.608Z,15.00
2023-02-07T20:04:00.974Z,15.38
2023-02-07T20:07:05.871Z,14.05
2023-02-07T20:10:13.770Z,16.40
2023-02-07T20:13:18.637Z,17.33
2023-02-07T20:16:35.964Z,18.90
2023-02-07T20:19:40.949Z,18.98
2023-02-07T20:22:46.214Z,18.58
2023-02-07T20:25:53.605Z,17.63
2023-02-07T20:29:01.390Z,18.65
2023-02-07T20:32:06.117Z,21.35
2023-02-07T20:35:11.377Z,21.67
2023-02-07T20:38:16.249Z,23.02
2023-02-07T20:41:32.829Z,22.45
2023-02-07T20:44:37.562Z,23.60
2023-02-07T20:47:42.683Z,21.48
2023-02-07T20:50:47.588Z,20.45
2023-02-07T20:54:04.589Z,18.80
2023-02-07T20:57:13.628Z,19.73
2023-02-07T21:00:19.114Z,17.98
2023-02-07T21:03:23.894Z,17.20
2023-02-07T21:06:30.738Z,19.38
2023-02-07T21:09:39.612Z,18.48
2023-02-07T21:12:47.616Z,18.00
2023-02-07T21:16:02.822Z,18.65
2023-02-07T21:19:08.861Z,15.55
2023-02-07T21:22:13.963Z,15.73
2023-02-07T21:25:19.260Z,17.15
2023-02-07T21:28:26.695Z,17.70
2023-02-07T21:31:34.758Z,17.25
2023-02-07T21:34:39.738Z,16.52
2023-02-07T21:37:46.346Z,16.70
2023-02-07T21:40:53.025Z,17.90
2023-02-07T21:44:03.387Z,16.30
2023-02-07T21:47:08.188Z,16.85
2023-02-07T21:50:13.512Z,15.38
2023-02-07T21:53:18.290Z,15.63
2023-02-07T21:56:25.638Z,15.65
2023-02-07T21:59:33.365Z,16.67
2023-02-07T22:02:46.516Z,14.27
2023-02-07T22:05:53.471Z,15.23
2023-02-07T22:09:00.919Z,15.55
2023-02-07T22:12:05.868Z,14.77
2023-02-07T22:15:13.837Z,12.13
2023-02-07T22:18:18.875Z,14.05
2023-02-07T22:21:25.599Z,11.60
2023-02-07T22:24:33.575Z,13.20
2023-02-07T22:27:40.068Z,17.00
2023-02-07T22:30:50.146Z,15.50
2023-02-07T22:33:56.505Z,12.55
2023-02-07T22:37:01.295Z,14.68
2023-02-07T22:40:06.776Z,15.90
2023-02-07T22:43:14.577Z,16.05
2023-02-07T22:46:24.575Z,15.02
2023-02-07T22:49:31.975Z,18.30
2023-02-07T22:52:37.161Z,16.15
2023-02-07T22:55:43.231Z,15.85
2023-02-07T22:58:50.776Z,17.10
2023-02-07T23:01:59.247Z,13.57
2023-02-07T23:05:04.681Z,16.77
2023-02-07T23:08:11.094Z,13.10
2023-02-07T23:11:17.273Z,13.95
2023-02-07T23:14:24.498Z,17.05
2023-02-07T23:17:33.967Z,14.45
2023-02-07T23:20:39.425Z,15.50
2023-02-07T23:23:45.111Z,16.25
2023-02-07T23:26:51.930Z,15.82
2023-02-07T23:29:58.788Z,13.75
2023-02-07T23:33:06.594Z,12.32
2023-02-07T23:36:12.153Z,10.82
2023-02-07T23:39:19.196Z,16.17
2023-02-07T23:42:24.421Z,14.80
2023-02-07T23:45:29.359Z,12.48
2023-02-07T23:48:39.081Z,14.65
2023-02-07T23:51:45.671Z,13.45
2023-02-07T23:54:51.013Z,13.52
2023-02-07T23:57:58.000Z,13.00
